createdAt,value
2019-03-12T00:02:04.910Z,93.40
2019-03-12T00:04:37.680Z,93.20
2019-03-12T00:07:10.016Z,92.40
2019-03-12T00:09:42.685Z,92.10
2019-03-12T00:12:14.764Z,92.10
2019-03-12T00:14:47.393Z,92.30
2019-03-12T00:17:19.985Z,91.80
2019-03-12T00:19:52.556Z,91.80
2019-03-12T00:22:24.900Z,91.80
2019-03-12T00:24:57.885Z,91.40
2019-03-12T00:27:30.330Z,91.50
2019-03-12T00:30:03.331Z,90.80
2019-03-12T00:32:35.613Z,91.00
2019-03-12T00:35:09.176Z,90.80
2019-03-12T00:37:43.041Z,90.80
2019-03-12T00:40:15.777Z,90.70
2019-03-12T00:42:48.850Z,90.40
2019-03-12T00:45:22.577Z,89.60
2019-03-12T00:47:55.145Z,89.00
2019-03-12T00:50:27.757Z,89.30
2019-03-12T00:53:00.197Z,89.60
2019-03-12T00:55:32.864Z,86.90
2019-03-12T00:58:05.226Z,87.20
2019-03-12T01:00:37.840Z,86.90
2019-03-12T01:03:11.138Z,85.90
2019-03-12T01:05:43.772Z,83.80
2019-03-12T01:08:15.983Z,82.80
2019-03-12T01:10:48.440Z,81.80
2019-03-12T01:13:21.268Z,80.40
2019-03-12T01:15:53.674Z,77.10
2019-03-12T01:18:26.634Z,76.50
2019-03-12T01:20:59.726Z,74.10
2019-03-12T01:23:32.217Z,75.00
2019-03-12T01:26:04.999Z,73.50
2019-03-12T01:28:37.376Z,71.20
2019-03-12T01:31:09.729Z,69.30
2019-03-12T01:33:42.121Z,66.30
2019-03-12T01:36:14.287Z,65.00
2019-03-12T01:38:46.875Z,62.70
2019-03-12T01:41:19.419Z,62.00
2019-03-12T01:43:52.460Z,61.60
2019-03-12T01:46:26.310Z,63.20
2019-03-12T01:48:59.301Z,63.40
2019-03-12T01:51:32.754Z,60.80
2019-03-12T01:54:25.673Z,59.70
2019-03-12T01:56:58.868Z,59.70
2019-03-12T01:59:31.493Z,59.30
2019-03-12T02:02:04.745Z,56.70
2019-03-12T02:04:37.389Z,56.40
2019-03-12T02:07:11.355Z,56.60
2019-03-12T02:09:44.264Z,54.00
2019-03-12T02:12:17.042Z,53.80
2019-03-12T02:17:31.503Z,52.20
2019-03-12T02:20:04.139Z,52.50
2019-03-12T02:22:36.961Z,51.50
2019-03-12T02:25:12.110Z,51.60
2019-03-12T02:27:45.128Z,50.90
2019-03-12T02:30:20.407Z,51.00
2019-03-12T02:32:53.394Z,50.20
2019-03-12T02:35:26.006Z,50.10
2019-03-12T02:37:58.874Z,49.50
2019-03-12T02:40:31.646Z,49.00
2019-03-12T02:43:04.582Z,47.00
2019-03-12T02:45:57.791Z,48.40
2019-03-12T02:48:30.760Z,48.30
2019-03-12T02:51:03.758Z,46.00
2019-03-12T02:53:36.753Z,45.80
2019-03-12T02:56:09.372Z,46.20
2019-03-12T02:58:55.581Z,45.70
2019-03-12T03:01:28.539Z,45.10
2019-03-12T03:04:02.149Z,44.00
2019-03-12T03:06:36.567Z,44.80
2019-03-12T03:09:10.156Z,46.80
2019-03-12T03:11:43.396Z,43.80
2019-03-12T03:14:18.212Z,42.00
2019-03-12T03:16:51.336Z,42.70
2019-03-12T03:19:23.728Z,42.50
2019-03-12T03:21:56.366Z,43.90
2019-03-12T03:24:29.637Z,42.40
2019-03-12T03:27:02.069Z,44.10
2019-03-12T03:29:34.561Z,41.90
2019-03-12T03:32:07.230Z,38.60
2019-03-12T03:34:40.531Z,40.70
2019-03-12T03:37:13.102Z,39.70
2019-03-12T03:39:45.649Z,39.50
2019-03-12T03:42:20.024Z,40.20
2019-03-12T03:44:52.314Z,40.10
2019-03-12T03:47:25.528Z,36.50
2019-03-12T03:49:58.049Z,36.90
2019-03-12T03:52:30.539Z,38.30
2019-03-12T03:55:03.367Z,38.40
2019-03-12T03:57:35.938Z,38.00
2019-03-12T04:00:10.826Z,36.50
2019-03-12T04:02:43.982Z,35.30
2019-03-12T04:05:16.911Z,32.30
2019-03-12T04:07:49.460Z,31.60
2019-03-12T04:10:22.018Z,30.70
2019-03-12T04:12:55.606Z,32.50
2019-03-12T04:15:28.478Z,32.40
2019-03-12T04:18:00.971Z,29.40
2019-03-12T04:20:33.818Z,29.90
2019-03-12T04:23:06.115Z,28.80
2019-03-12T04:25:38.745Z,28.10
2019-03-12T04:28:11.132Z,26.50
2019-03-12T04:30:43.963Z,29.40
2019-03-12T04:33:18.983Z,29.00
2019-03-12T04:35:51.872Z,28.00
2019-03-12T04:38:24.655Z,28.60
2019-03-12T04:40:57.425Z,28.20
2019-03-12T04:43:30.167Z,27.20
2019-03-12T04:46:02.958Z,27.30
2019-03-12T04:48:35.268Z,26.90
2019-03-12T04:51:07.733Z,26.80
2019-03-12T04:53:40.289Z,27.00
2019-03-12T04:56:12.524Z,28.10
2019-03-12T04:58:45.124Z,27.20
2019-03-12T05:01:18.208Z,27.50
2019-03-12T05:03:50.619Z,28.30
2019-03-12T05:06:23.658Z,26.50
2019-03-12T05:08:56.168Z,27.10
2019-03-12T05:11:28.504Z,26.30
2019-03-12T05:14:06.098Z,27.00
2019-03-12T05:16:38.682Z,26.60
2019-03-12T05:19:11.150Z,26.80
2019-03-12T05:21:45.038Z,25.10
2019-03-12T05:24:18.820Z,24.80
2019-03-12T05:26:51.996Z,25.40
2019-03-12T05:29:24.586Z,25.50
2019-03-12T05:31:56.926Z,24.80
2019-03-12T05:34:29.244Z,23.70
2019-03-12T05:37:01.737Z,24.90
2019-03-12T05:39:34.139Z,25.50
2019-03-12T05:42:06.905Z,23.90
2019-03-12T05:44:39.321Z,24.30
2019-03-12T05:47:11.715Z,23.90
2019-03-12T05:49:44.122Z,23.10
2019-03-12T05:52:16.701Z,23.30
2019-03-12T05:54:49.211Z,22.10
2019-03-12T05:57:21.863Z,20.10
2019-03-12T05:59:54.537Z,19.20
2019-03-12T06:02:27.088Z,19.30
2019-03-12T06:04:59.992Z,18.00
2019-03-12T06:07:32.562Z,18.10
2019-03-12T06:10:06.078Z,18.60
2019-03-12T06:12:38.468Z,18.70
2019-03-12T06:15:13.312Z,18.40
2019-03-12T06:17:45.705Z,18.80
2019-03-12T06:20:19.727Z,18.20
2019-03-12T06:22:52.164Z,19.70
2019-03-12T06:25:24.658Z,18.60
2019-03-12T06:27:57.105Z,19.20
2019-03-12T06:30:31.590Z,19.10
2019-03-12T06:33:05.280Z,19.00
2019-03-12T06:35:39.139Z,18.50
2019-03-12T06:38:13.616Z,19.10
2019-03-12T06:40:48.132Z,18.10
2019-03-12T06:43:21.939Z,17.70
2019-03-12T06:45:56.121Z,17.60
2019-03-12T06:48:30.451Z,17.90
2019-03-12T06:51:05.198Z,17.00
2019-03-12T06:53:39.623Z,17.10
2019-03-12T06:56:15.587Z,16.20
2019-03-12T06:58:49.340Z,16.90
2019-03-12T07:01:23.016Z,16.90
2019-03-12T07:03:56.686Z,15.80
2019-03-12T07:06:30.901Z,16.40
2019-03-12T07:09:04.646Z,16.20
2019-03-12T07:11:39.855Z,15.90
2019-03-12T07:14:15.485Z,15.00
2019-03-12T07:16:49.934Z,15.00
2019-03-12T07:19:23.560Z,16.50
2019-03-12T07:21:57.492Z,16.00
2019-03-12T07:24:31.071Z,16.30
2019-03-12T07:27:05.046Z,16.30
2019-03-12T07:29:38.849Z,17.20
2019-03-12T07:32:12.443Z,15.80
2019-03-12T07:34:46.450Z,15.90
2019-03-12T07:37:19.837Z,15.50
2019-03-12T07:39:54.068Z,15.60
2019-03-12T07:42:28.399Z,16.70
2019-03-12T07:45:02.200Z,16.00
2019-03-12T07:47:36.253Z,16.40
2019-03-12T07:50:11.694Z,15.30
2019-03-12T07:52:45.418Z,16.40
2019-03-12T07:55:19.226Z,16.40
2019-03-12T07:57:52.832Z,17.10
2019-03-12T08:00:27.079Z,17.50
2019-03-12T08:03:00.990Z,16.80
2019-03-12T08:05:34.760Z,16.10
2019-03-12T08:08:08.656Z,16.60
2019-03-12T08:10:42.451Z,16.70
2019-03-12T08:13:16.318Z,18.90
2019-03-12T08:15:50.597Z,16.40
2019-03-12T08:18:24.525Z,17.60
2019-03-12T08:20:58.279Z,17.00
2019-03-12T08:23:32.059Z,16.70
2019-03-12T08:26:05.982Z,16.50
2019-03-12T08:28:39.752Z,16.10
2019-03-12T08:31:13.188Z,16.60
2019-03-12T08:33:50.948Z,16.90
2019-03-12T08:36:21.772Z,18.10
2019-03-12T08:38:55.438Z,16.10
2019-03-12T08:41:29.356Z,16.50
2019-03-12T08:44:04.083Z,16.30
2019-03-12T08:46:38.885Z,16.40
2019-03-12T08:49:13.186Z,16.40
2019-03-12T08:51:47.066Z,16.40
2019-03-12T08:54:21.614Z,15.80
2019-03-12T08:56:57.633Z,16.30
2019-03-12T08:59:32.511Z,15.30
2019-03-12T09:02:06.784Z,15.50
2019-03-12T09:04:40.944Z,15.90
2019-03-12T09:07:15.048Z,16.20
2019-03-12T09:09:48.726Z,16.70
2019-03-12T09:12:22.370Z,15.50
2019-03-12T09:14:56.102Z,16.20
2019-03-12T09:17:29.802Z,15.90
2019-03-12T09:20:03.679Z,16.60
2019-03-12T09:22:37.689Z,16.90
2019-03-12T09:25:13.014Z,16.10
2019-03-12T09:27:48.731Z,16.60
2019-03-12T09:30:22.687Z,16.10
2019-03-12T09:32:57.312Z,16.50
2019-03-12T09:35:31.170Z,16.30
2019-03-12T09:38:04.834Z,16.00
2019-03-12T09:40:40.678Z,16.20
2019-03-12T09:43:14.691Z,15.50
2019-03-12T09:45:49.006Z,16.40
2019-03-12T09:48:23.680Z,16.10
2019-03-12T09:50:57.587Z,16.50
2019-03-12T09:53:31.152Z,16.90
2019-03-12T09:56:04.977Z,16.60
2019-03-12T09:58:38.654Z,16.60
2019-03-12T10:01:13.175Z,16.70
2019-03-12T10:03:46.855Z,17.20
2019-03-12T10:06:20.693Z,17.20
2019-03-12T10:08:55.106Z,16.80
2019-03-12T10:11:29.251Z,17.30
2019-03-12T10:14:03.954Z,17.70
2019-03-12T10:16:37.958Z,17.50
2019-03-12T10:19:12.188Z,18.90
2019-03-12T10:21:46.403Z,18.80
2019-03-12T10:24:20.202Z,18.40
2019-03-12T10:26:54.516Z,19.00
2019-03-12T10:29:28.571Z,19.00
2019-03-12T10:32:02.953Z,19.90
2019-03-12T10:34:37.274Z,19.50
2019-03-12T10:37:13.065Z,19.80
2019-03-12T10:39:48.912Z,19.80
2019-03-12T10:42:23.089Z,19.90
2019-03-12T10:44:58.131Z,20.00
2019-03-12T10:47:31.850Z,20.40
2019-03-12T10:50:05.433Z,20.40
2019-03-12T10:52:38.110Z,20.50
2019-03-12T10:55:13.298Z,20.80
2019-03-12T10:57:45.545Z,21.00
2019-03-12T11:00:20.085Z,21.40
2019-03-12T11:02:52.458Z,21.20
2019-03-12T11:05:26.123Z,21.80
2019-03-12T11:07:58.897Z,22.70
2019-03-12T11:10:32.268Z,25.40
2019-03-12T11:13:04.974Z,23.60
2019-03-12T11:15:37.764Z,23.20
2019-03-12T11:18:10.600Z,22.80
2019-03-12T11:20:43.046Z,23.00
2019-03-12T11:23:15.656Z,22.70
2019-03-12T11:25:48.086Z,22.90
2019-03-12T11:28:20.895Z,23.40
2019-03-12T11:30:53.418Z,23.50
2019-03-12T11:33:25.964Z,23.40
2019-03-12T11:35:59.290Z,24.20
2019-03-12T11:38:32.123Z,23.80
2019-03-12T11:41:04.907Z,23.80
2019-03-12T11:43:37.549Z,24.50
2019-03-12T11:46:09.985Z,24.80
2019-03-12T11:48:42.396Z,25.10
2019-03-12T11:51:14.613Z,25.90
2019-03-12T11:53:47.584Z,25.00
2019-03-12T11:56:20.276Z,25.90
2019-03-12T11:58:54.895Z,26.00
2019-03-12T12:01:27.565Z,26.00
2019-03-12T12:04:00.231Z,26.30
2019-03-12T12:06:32.993Z,25.90
2019-03-12T12:09:06.934Z,25.40
2019-03-12T12:11:40.592Z,25.70
2019-03-12T12:14:13.157Z,26.10
2019-03-12T12:16:45.500Z,25.80
2019-03-12T12:19:18.437Z,25.60
2019-03-12T12:21:50.931Z,26.00
2019-03-12T12:24:26.334Z,26.40
2019-03-12T12:26:57.210Z,27.70
2019-03-12T12:29:29.641Z,28.80
2019-03-12T12:32:01.925Z,29.40
2019-03-12T12:34:34.425Z,28.80
2019-03-12T12:37:06.919Z,29.40
2019-03-12T12:39:39.717Z,31.00
2019-03-12T12:42:12.071Z,30.70
2019-03-12T12:44:44.879Z,31.50
2019-03-12T12:47:17.469Z,28.60
2019-03-12T12:49:50.179Z,28.90
2019-03-12T12:52:23.635Z,28.90
2019-03-12T12:54:57.401Z,30.50
2019-03-12T12:57:29.850Z,31.60
2019-03-12T13:00:02.578Z,33.10
2019-03-12T13:02:36.135Z,32.60
2019-03-12T13:05:08.895Z,33.00
2019-03-12T13:07:41.329Z,34.80
2019-03-12T13:10:16.446Z,35.60
2019-03-12T13:12:48.934Z,36.70
2019-03-12T13:15:21.747Z,35.40
2019-03-12T13:17:54.274Z,34.40
2019-03-12T13:20:27.272Z,35.90
2019-03-12T13:23:00.549Z,36.80
2019-03-12T13:25:33.494Z,36.60
2019-03-12T13:28:10.031Z,37.70
2019-03-12T13:30:42.592Z,38.40
2019-03-12T13:33:16.308Z,39.00
2019-03-12T13:35:51.921Z,40.20
2019-03-12T13:38:24.659Z,39.20
2019-03-12T13:41:02.718Z,38.70
2019-03-12T13:43:32.387Z,38.90
2019-03-12T13:46:04.990Z,39.50
2019-03-12T13:48:37.237Z,38.90
2019-03-12T13:51:09.899Z,39.30
2019-03-12T13:53:42.793Z,39.90
2019-03-12T13:56:15.368Z,40.70
2019-03-12T13:58:47.767Z,41.70
2019-03-12T14:01:20.247Z,43.30
2019-03-12T14:03:52.551Z,43.00
2019-03-12T14:06:25.011Z,43.40
2019-03-12T14:08:57.526Z,42.90
2019-03-12T14:11:30.473Z,43.30
2019-03-12T14:14:02.874Z,44.70
2019-03-12T14:16:35.550Z,43.60
2019-03-12T14:19:08.138Z,44.60
2019-03-12T14:21:42.301Z,44.30
2019-03-12T14:24:14.472Z,44.50
2019-03-12T14:26:47.674Z,45.60
2019-03-12T14:29:20.034Z,49.40
2019-03-12T14:31:52.846Z,50.30
2019-03-12T14:34:27.073Z,50.40
2019-03-12T14:36:59.504Z,51.10
2019-03-12T14:39:31.807Z,53.80
2019-03-12T14:42:04.879Z,54.50
2019-03-12T14:44:37.479Z,56.30
2019-03-12T14:47:10.470Z,53.80
2019-03-12T14:49:42.813Z,55.00
2019-03-12T14:52:16.879Z,55.20
2019-03-12T14:54:49.202Z,56.20
2019-03-12T14:57:22.053Z,55.90
2019-03-12T14:59:54.411Z,56.30
2019-03-12T15:02:26.990Z,56.90
2019-03-12T15:04:59.227Z,57.20
2019-03-12T15:07:32.022Z,56.40
2019-03-12T15:10:04.983Z,56.20
2019-03-12T15:12:37.514Z,54.20
2019-03-12T15:15:12.753Z,55.10
2019-03-12T15:17:45.489Z,54.30
2019-03-12T15:20:17.901Z,57.60
2019-03-12T15:22:50.136Z,59.10
2019-03-12T15:25:22.483Z,59.10
2019-03-12T15:27:54.920Z,58.80
2019-03-12T15:30:29.137Z,52.80
2019-03-12T15:33:01.898Z,55.40
2019-03-12T15:35:34.668Z,57.30
2019-03-12T15:38:07.178Z,58.20
2019-03-12T15:40:39.344Z,58.80
2019-03-12T15:43:12.162Z,60.70
2019-03-12T15:45:44.651Z,63.10
2019-03-12T15:48:17.356Z,60.70
2019-03-12T15:50:49.819Z,60.30
2019-03-12T15:53:22.224Z,61.20
2019-03-12T15:55:55.859Z,60.90
2019-03-12T15:58:28.363Z,59.50
2019-03-12T16:01:02.703Z,58.50
2019-03-12T16:03:34.562Z,57.80
2019-03-12T16:06:07.049Z,59.10
2019-03-12T16:08:39.747Z,60.90
2019-03-12T16:11:12.014Z,63.20
2019-03-12T16:13:44.659Z,63.50
2019-03-12T16:16:17.007Z,61.60
2019-03-12T16:18:49.159Z,60.50
2019-03-12T16:21:21.792Z,62.20
2019-03-12T16:23:54.601Z,63.00
2019-03-12T16:26:39.311Z,62.30
2019-03-12T16:29:12.106Z,62.00
2019-03-12T16:31:44.738Z,61.30
2019-03-12T16:34:17.768Z,61.60
2019-03-12T16:36:50.275Z,62.20
2019-03-12T16:39:23.125Z,62.30
2019-03-12T16:41:55.701Z,61.90
2019-03-12T16:44:28.177Z,61.40
2019-03-12T16:47:00.573Z,61.10
2019-03-12T16:49:45.222Z,62.80
2019-03-12T16:52:17.855Z,63.10
2019-03-12T16:54:51.445Z,61.80
2019-03-12T16:57:24.142Z,61.50
2019-03-12T16:59:56.890Z,62.20
2019-03-12T17:02:29.252Z,64.90
2019-03-12T17:05:03.850Z,65.40
2019-03-12T17:07:36.695Z,66.00
2019-03-12T17:10:11.203Z,64.00
2019-03-12T17:12:43.831Z,65.90
2019-03-12T17:15:18.570Z,70.10
2019-03-12T17:17:51.203Z,69.20
2019-03-12T17:20:25.082Z,68.80
2019-03-12T17:22:57.499Z,69.40
2019-03-12T17:25:29.836Z,69.60
2019-03-12T17:28:02.679Z,70.50
2019-03-12T17:30:35.633Z,69.60
2019-03-12T17:33:07.982Z,69.40
2019-03-12T17:35:42.763Z,67.40
2019-03-12T17:38:15.118Z,66.90
2019-03-12T17:40:47.670Z,67.70
2019-03-12T17:43:33.530Z,66.70
2019-03-12T17:46:05.988Z,69.20
2019-03-12T17:48:38.729Z,67.80
2019-03-12T17:51:11.150Z,67.60
2019-03-12T17:53:43.820Z,67.40
2019-03-12T17:56:16.497Z,68.00
2019-03-12T17:58:49.284Z,68.80
2019-03-12T18:01:29.327Z,68.50
2019-03-12T18:03:55.239Z,68.30
2019-03-12T18:06:34.892Z,68.30
2019-03-12T18:09:08.770Z,69.90
2019-03-12T18:11:42.217Z,70.80
2019-03-12T18:14:14.753Z,70.30
2019-03-12T18:16:47.297Z,70.50
2019-03-12T18:19:19.599Z,71.00
2019-03-12T18:21:52.986Z,70.20
2019-03-12T18:24:25.279Z,70.80
2019-03-12T18:26:58.359Z,72.00
2019-03-12T18:29:30.847Z,73.00
2019-03-12T18:32:03.498Z,71.20
2019-03-12T18:34:35.956Z,70.70
2019-03-12T18:37:08.550Z,69.10
2019-03-12T18:39:41.018Z,68.80
2019-03-12T18:42:13.688Z,68.60
2019-03-12T18:44:56.811Z,71.00
2019-03-12T18:47:22.693Z,69.10
2019-03-12T18:49:54.993Z,70.70
2019-03-12T18:52:27.445Z,69.80
2019-03-12T18:54:59.975Z,69.20
2019-03-12T18:57:32.754Z,68.90
2019-03-12T19:00:24.238Z,69.60
2019-03-12T19:02:57.180Z,69.20
2019-03-12T19:05:29.739Z,69.60
2019-03-12T19:08:02.481Z,69.30
2019-03-12T19:10:36.008Z,69.50
2019-03-12T19:13:08.930Z,69.00
2019-03-12T19:15:41.593Z,68.50
2019-03-12T19:18:15.422Z,67.60
2019-03-12T19:20:47.797Z,69.90
2019-03-12T19:23:20.505Z,69.70
2019-03-12T19:25:53.158Z,70.20
2019-03-12T19:28:26.071Z,73.50
2019-03-12T19:31:01.376Z,74.30
2019-03-12T19:33:34.772Z,74.50
2019-03-12T19:36:07.358Z,72.60
2019-03-12T19:38:39.972Z,73.90
2019-03-12T19:41:12.378Z,75.40
2019-03-12T19:43:45.133Z,73.20
2019-03-12T19:46:17.438Z,73.40
2019-03-12T19:48:50.284Z,73.00
2019-03-12T19:51:22.645Z,72.90
2019-03-12T19:53:55.129Z,72.60
2019-03-12T19:56:27.469Z,73.20
2019-03-12T19:58:59.880Z,74.40
2019-03-12T20:01:33.892Z,74.60
2019-03-12T20:04:06.191Z,73.90
2019-03-12T20:06:39.077Z,74.90
2019-03-12T20:09:12.369Z,76.20
2019-03-12T20:11:47.499Z,76.00
2019-03-12T20:14:22.778Z,77.00
2019-03-12T20:17:08.647Z,77.30
2019-03-12T20:19:34.483Z,73.60
2019-03-12T20:22:09.914Z,74.70
2019-03-12T20:24:45.367Z,76.00
2019-03-12T20:27:21.636Z,77.70
2019-03-12T20:29:56.058Z,77.70
2019-03-12T20:32:31.196Z,77.20
2019-03-12T20:35:06.064Z,78.30
2019-03-12T20:37:41.257Z,77.20
2019-03-12T20:40:16.704Z,76.40
2019-03-12T20:42:51.840Z,78.90
2019-03-12T20:45:27.097Z,78.20
2019-03-12T20:48:02.017Z,78.10
2019-03-12T20:50:37.670Z,78.50
2019-03-12T20:53:12.591Z,78.00
2019-03-12T20:55:47.466Z,77.80
2019-03-12T20:58:22.247Z,77.20
2019-03-12T21:00:57.011Z,77.90
2019-03-12T21:03:31.812Z,77.40
2019-03-12T21:06:06.737Z,77.10
2019-03-12T21:08:41.731Z,78.00
2019-03-12T21:11:16.270Z,78.50
2019-03-12T21:13:51.130Z,78.30
2019-03-12T21:16:26.169Z,80.20
2019-03-12T21:19:01.309Z,80.50
2019-03-12T21:21:36.349Z,79.40
2019-03-12T21:24:12.083Z,79.60
2019-03-12T21:26:46.900Z,81.20
2019-03-12T21:29:21.661Z,81.90
2019-03-12T21:31:54.274Z,80.70
2019-03-12T21:34:26.994Z,80.70
2019-03-12T21:36:59.321Z,81.20
2019-03-12T21:39:31.756Z,81.70
2019-03-12T21:42:04.731Z,81.90
2019-03-12T21:44:37.424Z,81.30
2019-03-12T21:47:10.330Z,82.30
2019-03-12T21:49:43.099Z,82.30
2019-03-12T21:52:15.654Z,82.80
2019-03-12T21:54:48.165Z,83.00
2019-03-12T21:57:21.156Z,84.50
2019-03-12T21:59:53.641Z,84.90
2019-03-12T22:02:26.400Z,85.10
2019-03-12T22:04:58.902Z,83.60
2019-03-12T22:07:31.261Z,83.50
2019-03-12T22:10:03.755Z,83.10
2019-03-12T22:12:37.529Z,83.70
2019-03-12T22:15:12.092Z,83.10
2019-03-12T22:18:03.459Z,82.30
2019-03-12T22:20:37.357Z,82.50
2019-03-12T22:23:11.543Z,83.40
2019-03-12T22:25:44.051Z,84.70
2019-03-12T22:28:16.263Z,84.50
2019-03-12T22:30:49.510Z,85.50
2019-03-12T22:33:22.412Z,86.30
2019-03-12T22:35:55.433Z,87.30
2019-03-12T22:38:40.878Z,86.80
2019-03-12T22:41:13.127Z,87.60
2019-03-12T22:43:45.677Z,88.50
2019-03-12T22:46:18.019Z,88.60
2019-03-12T22:48:50.819Z,88.20
2019-03-12T22:51:23.531Z,88.30
2019-03-12T22:53:55.937Z,88.20
2019-03-12T22:56:28.338Z,87.90
2019-03-12T22:59:00.881Z,86.20
2019-03-12T23:01:34.845Z,86.20
2019-03-12T23:04:09.294Z,86.80
2019-03-12T23:06:43.105Z,87.00
2019-03-12T23:09:17.091Z,86.70
2019-03-12T23:11:51.052Z,89.10
2019-03-12T23:14:24.664Z,91.90
2019-03-12T23:16:57.401Z,90.50
2019-03-12T23:19:30.160Z,90.20
2019-03-12T23:22:02.760Z,89.40
2019-03-12T23:24:35.497Z,89.10
2019-03-12T23:27:08.862Z,89.10
2019-03-12T23:29:41.612Z,89.70
2019-03-12T23:32:14.394Z,90.00
2019-03-12T23:34:47.277Z,90.30
2019-03-12T23:37:32.506Z,90.80
2019-03-12T23:40:06.059Z,90.60
2019-03-12T23:42:38.416Z,90.30
2019-03-12T23:45:12.452Z,90.60
2019-03-12T23:47:45.149Z,90.30
2019-03-12T23:50:18.860Z,90.20
2019-03-12T23:52:51.395Z,90.10
2019-03-12T23:55:23.934Z,90.10
2019-03-12T23:57:56.718Z,90.10
